sensor_id;sensor_type;location;lat;lon;timestamp;P1;durP1;ratioP1;P2;durP2;ratioP2
18411;SDS011;27097;51.738;19.472;2022-12-20T00:01:44;19.92;;;11.00;;
18411;SDS011;27097;51.738;19.472;2022-12-20T00:04:11;18.35;;;10.27;;
18411;SDS011;27097;51.738;19.472;2022-12-20T00:06:38;18.85;;;10.13;;
18411;SDS011;27097;51.738;19.472;2022-12-20T00:09:07;18.55;;;10.45;;
18411;SDS011;27097;51.738;19.472;2022-12-20T00:11:35;17.63;;;10.25;;
18411;SDS011;27097;51.738;19.472;2022-12-20T00:14:04;20.42;;;10.50;;
18411;SDS011;27097;51.738;19.472;2022-12-20T00:16:31;18.50;;;9.75;;
18411;SDS011;27097;51.738;19.472;2022-12-20T00:18:59;16.75;;;9.80;;
18411;SDS011;27097;51.738;19.472;2022-12-20T00:21:28;17.33;;;10.43;;
18411;SDS011;27097;51.738;19.472;2022-12-20T00:23:56;17.70;;;10.50;;
18411;SDS011;27097;51.738;19.472;2022-12-20T00:26:25;20.77;;;10.30;;
18411;SDS011;27097;51.738;19.472;2022-12-20T00:28:53;17.95;;;10.63;;
18411;SDS011;27097;51.738;19.472;2022-12-20T00:31:21;22.83;;;10.20;;
18411;SDS011;27097;51.738;19.472;2022-12-20T00:33:51;18.98;;;10.07;;
18411;SDS011;27097;51.738;19.472;2022-12-20T00:36:21;16.48;;;9.65;;
18411;SDS011;27097;51.738;19.472;2022-12-20T00:38:49;22.08;;;11.32;;
18411;SDS011;27097;51.738;19.472;2022-12-20T00:41:19;19.58;;;10.20;;
18411;SDS011;27097;51.738;19.472;2022-12-20T00:43:49;22.05;;;10.43;;
18411;SDS011;27097;51.738;19.472;2022-12-20T00:46:17;20.67;;;10.15;;
18411;SDS011;27097;51.738;19.472;2022-12-20T00:48:45;24.40;;;9.90;;
18411;SDS011;27097;51.738;19.472;2022-12-20T00:51:13;22.83;;;11.10;;
18411;SDS011;27097;51.738;19.472;2022-12-20T00:53:42;19.02;;;10.50;;
18411;SDS011;27097;51.738;19.472;2022-12-20T00:56:09;20.98;;;10.18;;
18411;SDS011;27097;51.738;19.472;2022-12-20T00:58:37;21.13;;;10.40;;
18411;SDS011;27097;51.738;19.472;2022-12-20T01:01:13;23.75;;;10.52;;
18411;SDS011;27097;51.738;19.472;2022-12-20T01:03:42;20.00;;;10.50;;
18411;SDS011;27097;51.738;19.472;2022-12-20T01:06:09;18.98;;;9.50;;
18411;SDS011;27097;51.738;19.472;2022-12-20T01:08:36;19.05;;;9.73;;
18411;SDS011;27097;51.738;19.472;2022-12-20T01:11:04;18.92;;;10.02;;
18411;SDS011;27097;51.738;19.472;2022-12-20T01:13:34;19.35;;;10.23;;
18411;SDS011;27097;51.738;19.472;2022-12-20T01:16:02;20.33;;;9.23;;
18411;SDS011;27097;51.738;19.472;2022-12-20T01:18:31;17.15;;;9.32;;
18411;SDS011;27097;51.738;19.472;2022-12-20T01:21:02;17.48;;;9.43;;
18411;SDS011;27097;51.738;19.472;2022-12-20T01:23:30;19.30;;;10.00;;
18411;SDS011;27097;51.738;19.472;2022-12-20T01:25:57;17.65;;;9.38;;
18411;SDS011;27097;51.738;19.472;2022-12-20T01:28:25;15.15;;;8.93;;
18411;SDS011;27097;51.738;19.472;2022-12-20T01:30:53;22.77;;;9.18;;
18411;SDS011;27097;51.738;19.472;2022-12-20T01:33:20;20.60;;;9.57;;
18411;SDS011;27097;51.738;19.472;2022-12-20T01:35:55;19.45;;;9.65;;
18411;SDS011;27097;51.738;19.472;2022-12-20T01:38:23;16.45;;;9.35;;
18411;SDS011;27097;51.738;19.472;2022-12-20T01:40:50;18.20;;;9.25;;
18411;SDS011;27097;51.738;19.472;2022-12-20T01:43:18;17.55;;;8.95;;
18411;SDS011;27097;51.738;19.472;2022-12-20T01:45:46;15.25;;;8.73;;
18411;SDS011;27097;51.738;19.472;2022-12-20T01:48:13;16.85;;;9.23;;
18411;SDS011;27097;51.738;19.472;2022-12-20T01:50:46;17.23;;;8.30;;
18411;SDS011;27097;51.738;19.472;2022-12-20T01:53:16;17.27;;;9.20;;
18411;SDS011;27097;51.738;19.472;2022-12-20T01:55:47;16.15;;;8.85;;
18411;SDS011;27097;51.738;19.472;2022-12-20T01:58:15;17.90;;;8.43;;
18411;SDS011;27097;51.738;19.472;2022-12-20T02:00:45;17.52;;;8.85;;
18411;SDS011;27097;51.738;19.472;2022-12-20T02:03:13;15.00;;;8.88;;
18411;SDS011;27097;51.738;19.472;2022-12-20T02:05:43;15.60;;;8.95;;
18411;SDS011;27097;51.738;19.472;2022-12-20T02:08:13;16.95;;;9.88;;
18411;SDS011;27097;51.738;19.472;2022-12-20T02:10:59;14.48;;;8.73;;
18411;SDS011;27097;51.738;19.472;2022-12-20T02:13:36;17.42;;;8.90;;
18411;SDS011;27097;51.738;19.472;2022-12-20T02:16:11;15.68;;;8.68;;
18411;SDS011;27097;51.738;19.472;2022-12-20T02:18:45;14.60;;;8.68;;
18411;SDS011;27097;51.738;19.472;2022-12-20T02:21:23;16.80;;;8.82;;
18411;SDS011;27097;51.738;19.472;2022-12-20T02:24:12;17.33;;;8.55;;
18411;SDS011;27097;51.738;19.472;2022-12-20T02:26:59;16.13;;;8.48;;
18411;SDS011;27097;51.738;19.472;2022-12-20T02:29:57;13.88;;;8.43;;
18411;SDS011;27097;51.738;19.472;2022-12-20T02:32:33;14.15;;;8.65;;
18411;SDS011;27097;51.738;19.472;2022-12-20T02:35:04;17.38;;;8.80;;
18411;SDS011;27097;51.738;19.472;2022-12-20T02:37:34;17.25;;;8.68;;
18411;SDS011;27097;51.738;19.472;2022-12-20T02:40:01;12.55;;;7.60;;
18411;SDS011;27097;51.738;19.472;2022-12-20T02:42:30;15.23;;;8.32;;
18411;SDS011;27097;51.738;19.472;2022-12-20T02:45:02;17.35;;;8.23;;
18411;SDS011;27097;51.738;19.472;2022-12-20T02:47:42;13.73;;;8.48;;
18411;SDS011;27097;51.738;19.472;2022-12-20T02:50:14;13.23;;;8.00;;
18411;SDS011;27097;51.738;19.472;2022-12-20T02:52:43;14.40;;;8.05;;
18411;SDS011;27097;51.738;19.472;2022-12-20T02:55:10;16.48;;;7.95;;
18411;SDS011;27097;51.738;19.472;2022-12-20T02:57:40;13.27;;;8.05;;
18411;SDS011;27097;51.738;19.472;2022-12-20T03:00:14;17.33;;;8.35;;
18411;SDS011;27097;51.738;19.472;2022-12-20T03:02:43;13.50;;;7.88;;
18411;SDS011;27097;51.738;19.472;2022-12-20T03:05:28;15.98;;;8.60;;
18411;SDS011;27097;51.738;19.472;2022-12-20T03:07:57;14.30;;;8.18;;
18411;SDS011;27097;51.738;19.472;2022-12-20T03:10:24;14.85;;;7.82;;
18411;SDS011;27097;51.738;19.472;2022-12-20T03:12:51;17.30;;;8.40;;
18411;SDS011;27097;51.738;19.472;2022-12-20T03:15:20;13.75;;;7.80;;
18411;SDS011;27097;51.738;19.472;2022-12-20T03:17:47;18.55;;;8.35;;
18411;SDS011;27097;51.738;19.472;2022-12-20T03:20:13;15.13;;;8.30;;
18411;SDS011;27097;51.738;19.472;2022-12-20T03:22:40;14.43;;;7.97;;
18411;SDS011;27097;51.738;19.472;2022-12-20T03:25:07;16.80;;;8.00;;
18411;SDS011;27097;51.738;19.472;2022-12-20T03:27:34;13.75;;;8.25;;
18411;SDS011;27097;51.738;19.472;2022-12-20T03:30:01;16.02;;;8.65;;
18411;SDS011;27097;51.738;19.472;2022-12-20T03:32:30;16.08;;;8.35;;
18411;SDS011;27097;51.738;19.472;2022-12-20T03:34:57;16.85;;;8.27;;
18411;SDS011;27097;51.738;19.472;2022-12-20T03:37:25;14.63;;;7.63;;
18411;SDS011;27097;51.738;19.472;2022-12-20T03:39:52;13.52;;;7.50;;
18411;SDS011;27097;51.738;19.472;2022-12-20T03:42:19;13.48;;;7.45;;
18411;SDS011;27097;51.738;19.472;2022-12-20T03:44:46;15.10;;;7.97;;
18411;SDS011;27097;51.738;19.472;2022-12-20T03:47:13;11.95;;;7.60;;
18411;SDS011;27097;51.738;19.472;2022-12-20T03:49:41;12.07;;;7.75;;
18411;SDS011;27097;51.738;19.472;2022-12-20T03:52:08;13.38;;;7.30;;
18411;SDS011;27097;51.738;19.472;2022-12-20T03:54:37;15.20;;;8.20;;
18411;SDS011;27097;51.738;19.472;2022-12-20T03:57:03;15.50;;;8.25;;
18411;SDS011;27097;51.738;19.472;2022-12-20T03:59:30;15.02;;;8.02;;
18411;SDS011;27097;51.738;19.472;2022-12-20T04:01:57;13.00;;;7.72;;
18411;SDS011;27097;51.738;19.472;2022-12-20T04:04:24;13.48;;;8.13;;
18411;SDS011;27097;51.738;19.472;2022-12-20T04:06:52;15.82;;;8.15;;
18411;SDS011;27097;51.738;19.472;2022-12-20T04:09:19;13.90;;;8.13;;
18411;SDS011;27097;51.738;19.472;2022-12-20T04:11:46;13.88;;;7.65;;
18411;SDS011;27097;51.738;19.472;2022-12-20T04:14:13;14.98;;;7.85;;
18411;SDS011;27097;51.738;19.472;2022-12-20T04:16:40;14.90;;;7.53;;
18411;SDS011;27097;51.738;19.472;2022-12-20T04:19:07;12.30;;;7.43;;
18411;SDS011;27097;51.738;19.472;2022-12-20T04:21:34;11.70;;;7.10;;
18411;SDS011;27097;51.738;19.472;2022-12-20T04:24:03;14.75;;;7.78;;
18411;SDS011;27097;51.738;19.472;2022-12-20T04:26:31;15.85;;;7.80;;
18411;SDS011;27097;51.738;19.472;2022-12-20T04:28:58;11.60;;;7.90;;
18411;SDS011;27097;51.738;19.472;2022-12-20T04:31:24;12.10;;;7.93;;
18411;SDS011;27097;51.738;19.472;2022-12-20T04:33:51;12.75;;;7.35;;
18411;SDS011;27097;51.738;19.472;2022-12-20T04:36:19;13.27;;;7.22;;
18411;SDS011;27097;51.738;19.472;2022-12-20T04:38:46;16.27;;;8.05;;
18411;SDS011;27097;51.738;19.472;2022-12-20T04:41:14;13.77;;;7.85;;
18411;SDS011;27097;51.738;19.472;2022-12-20T04:43:48;11.88;;;6.82;;
18411;SDS011;27097;51.738;19.472;2022-12-20T04:46:16;13.65;;;7.75;;
18411;SDS011;27097;51.738;19.472;2022-12-20T04:48:43;14.27;;;7.72;;
18411;SDS011;27097;51.738;19.472;2022-12-20T04:51:10;19.25;;;7.57;;
18411;SDS011;27097;51.738;19.472;2022-12-20T04:53:37;13.27;;;7.05;;
18411;SDS011;27097;51.738;19.472;2022-12-20T04:56:12;15.23;;;7.70;;
18411;SDS011;27097;51.738;19.472;2022-12-20T04:58:42;11.63;;;7.53;;
18411;SDS011;27097;51.738;19.472;2022-12-20T05:01:09;13.40;;;7.38;;
18411;SDS011;27097;51.738;19.472;2022-12-20T05:03:37;13.00;;;7.32;;
18411;SDS011;27097;51.738;19.472;2022-12-20T05:06:04;11.93;;;7.45;;
18411;SDS011;27097;51.738;19.472;2022-12-20T05:08:32;12.00;;;7.47;;
18411;SDS011;27097;51.738;19.472;2022-12-20T05:10:59;12.10;;;7.50;;
18411;SDS011;27097;51.738;19.472;2022-12-20T05:13:27;11.63;;;7.45;;
18411;SDS011;27097;51.738;19.472;2022-12-20T05:15:54;11.75;;;7.72;;
18411;SDS011;27097;51.738;19.472;2022-12-20T05:18:23;12.80;;;8.13;;
18411;SDS011;27097;51.738;19.472;2022-12-20T05:20:53;11.10;;;7.13;;
18411;SDS011;27097;51.738;19.472;2022-12-20T05:23:35;11.55;;;6.97;;
18411;SDS011;27097;51.738;19.472;2022-12-20T05:26:20;15.35;;;7.22;;
18411;SDS011;27097;51.738;19.472;2022-12-20T05:28:50;13.23;;;7.68;;
18411;SDS011;27097;51.738;19.472;2022-12-20T05:31:17;12.52;;;7.47;;
18411;SDS011;27097;51.738;19.472;2022-12-20T05:33:44;11.88;;;7.20;;
18411;SDS011;27097;51.738;19.472;2022-12-20T05:36:11;15.25;;;7.80;;
18411;SDS011;27097;51.738;19.472;2022-12-20T05:38:38;14.68;;;7.45;;
18411;SDS011;27097;51.738;19.472;2022-12-20T05:41:05;14.65;;;7.68;;
18411;SDS011;27097;51.738;19.472;2022-12-20T05:43:32;10.13;;;6.80;;
18411;SDS011;27097;51.738;19.472;2022-12-20T05:46:01;10.43;;;7.15;;
18411;SDS011;27097;51.738;19.472;2022-12-20T05:48:27;13.60;;;7.60;;
18411;SDS011;27097;51.738;19.472;2022-12-20T05:50:54;11.88;;;7.45;;
18411;SDS011;27097;51.738;19.472;2022-12-20T05:53:21;12.15;;;7.47;;
18411;SDS011;27097;51.738;19.472;2022-12-20T05:55:49;12.77;;;7.63;;
18411;SDS011;27097;51.738;19.472;2022-12-20T05:58:18;12.10;;;6.65;;
18411;SDS011;27097;51.738;19.472;2022-12-20T06:00:45;11.85;;;7.50;;
18411;SDS011;27097;51.738;19.472;2022-12-20T06:03:13;11.68;;;7.03;;
18411;SDS011;27097;51.738;19.472;2022-12-20T06:05:41;14.77;;;6.88;;
18411;SDS011;27097;51.738;19.472;2022-12-20T06:08:09;11.57;;;7.38;;
18411;SDS011;27097;51.738;19.472;2022-12-20T06:10:37;12.35;;;7.50;;
18411;SDS011;27097;51.738;19.472;2022-12-20T06:13:05;13.38;;;7.65;;
18411;SDS011;27097;51.738;19.472;2022-12-20T06:15:33;15.00;;;7.65;;
18411;SDS011;27097;51.738;19.472;2022-12-20T06:18:00;13.68;;;8.63;;
18411;SDS011;27097;51.738;19.472;2022-12-20T06:20:29;13.63;;;7.63;;
18411;SDS011;27097;51.738;19.472;2022-12-20T06:22:56;15.85;;;9.00;;
18411;SDS011;27097;51.738;19.472;2022-12-20T06:25:23;17.33;;;8.13;;
18411;SDS011;27097;51.738;19.472;2022-12-20T06:27:50;15.98;;;8.43;;
18411;SDS011;27097;51.738;19.472;2022-12-20T06:30:17;16.48;;;8.63;;
18411;SDS011;27097;51.738;19.472;2022-12-20T06:32:44;18.58;;;8.70;;
18411;SDS011;27097;51.738;19.472;2022-12-20T06:35:11;18.83;;;8.60;;
18411;SDS011;27097;51.738;19.472;2022-12-20T06:37:40;16.63;;;8.90;;
18411;SDS011;27097;51.738;19.472;2022-12-20T06:40:07;19.95;;;8.52;;
18411;SDS011;27097;51.738;19.472;2022-12-20T06:42:36;23.77;;;9.48;;
18411;SDS011;27097;51.738;19.472;2022-12-20T06:45:03;21.00;;;8.90;;
18411;SDS011;27097;51.738;19.472;2022-12-20T06:47:30;19.58;;;8.95;;
18411;SDS011;27097;51.738;19.472;2022-12-20T06:49:57;22.23;;;9.02;;
18411;SDS011;27097;51.738;19.472;2022-12-20T06:52:24;21.08;;;9.75;;
18411;SDS011;27097;51.738;19.472;2022-12-20T06:54:52;31.38;;;9.55;;
18411;SDS011;27097;51.738;19.472;2022-12-20T06:57:19;21.83;;;9.20;;
18411;SDS011;27097;51.738;19.472;2022-12-20T06:59:46;24.00;;;9.02;;
18411;SDS011;27097;51.738;19.472;2022-12-20T07:02:13;25.42;;;9.45;;
18411;SDS011;27097;51.738;19.472;2022-12-20T07:04:41;26.20;;;9.65;;
18411;SDS011;27097;51.738;19.472;2022-12-20T07:07:07;23.27;;;9.98;;
18411;SDS011;27097;51.738;19.472;2022-12-20T07:09:34;25.42;;;9.98;;
18411;SDS011;27097;51.738;19.472;2022-12-20T07:12:03;24.35;;;10.43;;
18411;SDS011;27097;51.738;19.472;2022-12-20T07:14:30;28.58;;;10.57;;
18411;SDS011;27097;51.738;19.472;2022-12-20T07:16:57;27.10;;;10.50;;
18411;SDS011;27097;51.738;19.472;2022-12-20T07:19:24;29.50;;;10.02;;
18411;SDS011;27097;51.738;19.472;2022-12-20T07:21:51;23.05;;;9.95;;
18411;SDS011;27097;51.738;19.472;2022-12-20T07:24:18;25.13;;;10.07;;
18411;SDS011;27097;51.738;19.472;2022-12-20T07:26:45;25.00;;;10.00;;
18411;SDS011;27097;51.738;19.472;2022-12-20T07:29:13;24.98;;;10.43;;
18411;SDS011;27097;51.738;19.472;2022-12-20T07:31:40;25.30;;;11.10;;
18411;SDS011;27097;51.738;19.472;2022-12-20T07:34:07;26.17;;;10.38;;
18411;SDS011;27097;51.738;19.472;2022-12-20T07:36:34;33.67;;;10.55;;
18411;SDS011;27097;51.738;19.472;2022-12-20T07:39:01;26.00;;;11.18;;
18411;SDS011;27097;51.738;19.472;2022-12-20T07:41:28;22.38;;;11.13;;
18411;SDS011;27097;51.738;19.472;2022-12-20T07:43:55;38.17;;;11.38;;
18411;SDS011;27097;51.738;19.472;2022-12-20T07:46:23;28.58;;;11.23;;
18411;SDS011;27097;51.738;19.472;2022-12-20T07:48:50;29.63;;;10.90;;
18411;SDS011;27097;51.738;19.472;2022-12-20T07:51:18;31.35;;;10.65;;
18411;SDS011;27097;51.738;19.472;2022-12-20T07:53:47;31.92;;;11.05;;
18411;SDS011;27097;51.738;19.472;2022-12-20T07:56:18;24.75;;;11.07;;
18411;SDS011;27097;51.738;19.472;2022-12-20T07:58:46;24.73;;;11.13;;
18411;SDS011;27097;51.738;19.472;2022-12-20T08:01:16;28.90;;;12.10;;
18411;SDS011;27097;51.738;19.472;2022-12-20T08:03:45;34.97;;;12.13;;
18411;SDS011;27097;51.738;19.472;2022-12-20T08:06:16;24.02;;;11.52;;
18411;SDS011;27097;51.738;19.472;2022-12-20T08:08:45;22.25;;;11.30;;
18411;SDS011;27097;51.738;19.472;2022-12-20T08:11:14;23.55;;;11.93;;
18411;SDS011;27097;51.738;19.472;2022-12-20T08:13:43;27.67;;;11.82;;
18411;SDS011;27097;51.738;19.472;2022-12-20T08:16:11;24.13;;;12.00;;
18411;SDS011;27097;51.738;19.472;2022-12-20T08:18:37;21.95;;;11.80;;
18411;SDS011;27097;51.738;19.472;2022-12-20T08:21:06;26.50;;;12.90;;
18411;SDS011;27097;51.738;19.472;2022-12-20T08:23:34;29.05;;;11.30;;
18411;SDS011;27097;51.738;19.472;2022-12-20T08:26:01;23.25;;;11.88;;
18411;SDS011;27097;51.738;19.472;2022-12-20T08:28:28;33.45;;;12.70;;
18411;SDS011;27097;51.738;19.472;2022-12-20T08:30:59;23.25;;;12.77;;
18411;SDS011;27097;51.738;19.472;2022-12-20T08:33:26;24.00;;;12.45;;
18411;SDS011;27097;51.738;19.472;2022-12-20T08:35:57;30.05;;;12.13;;
18411;SDS011;27097;51.738;19.472;2022-12-20T08:38:26;25.73;;;12.38;;
18411;SDS011;27097;51.738;19.472;2022-12-20T08:40:54;27.23;;;13.02;;
18411;SDS011;27097;51.738;19.472;2022-12-20T08:43:20;24.80;;;12.38;;
18411;SDS011;27097;51.738;19.472;2022-12-20T08:45:51;22.65;;;12.40;;
18411;SDS011;27097;51.738;19.472;2022-12-20T08:48:19;21.77;;;11.60;;
18411;SDS011;27097;51.738;19.472;2022-12-20T08:50:46;26.63;;;12.55;;
18411;SDS011;27097;51.738;19.472;2022-12-20T08:53:18;25.98;;;12.82;;
18411;SDS011;27097;51.738;19.472;2022-12-20T08:55:47;23.92;;;13.02;;
18411;SDS011;27097;51.738;19.472;2022-12-20T08:58:14;25.92;;;13.05;;
18411;SDS011;27097;51.738;19.472;2022-12-20T09:00:41;26.48;;;12.50;;
18411;SDS011;27097;51.738;19.472;2022-12-20T09:03:08;24.63;;;12.07;;
18411;SDS011;27097;51.738;19.472;2022-12-20T09:05:35;24.67;;;13.07;;
18411;SDS011;27097;51.738;19.472;2022-12-20T09:08:08;26.90;;;13.25;;
18411;SDS011;27097;51.738;19.472;2022-12-20T09:10:35;25.08;;;12.75;;
18411;SDS011;27097;51.738;19.472;2022-12-20T09:13:03;24.90;;;12.60;;
18411;SDS011;27097;51.738;19.472;2022-12-20T09:15:30;28.77;;;12.90;;
18411;SDS011;27097;51.738;19.472;2022-12-20T09:17:58;26.45;;;12.43;;
18411;SDS011;27097;51.738;19.472;2022-12-20T09:20:26;25.17;;;12.85;;
18411;SDS011;27097;51.738;19.472;2022-12-20T09:22:53;25.25;;;13.23;;
18411;SDS011;27097;51.738;19.472;2022-12-20T09:25:20;25.27;;;12.90;;
18411;SDS011;27097;51.738;19.472;2022-12-20T09:27:47;25.80;;;13.25;;
18411;SDS011;27097;51.738;19.472;2022-12-20T09:30:15;22.85;;;12.65;;
18411;SDS011;27097;51.738;19.472;2022-12-20T09:32:42;26.60;;;13.15;;
18411;SDS011;27097;51.738;19.472;2022-12-20T09:35:10;26.92;;;13.23;;
18411;SDS011;27097;51.738;19.472;2022-12-20T09:37:37;23.83;;;12.77;;
18411;SDS011;27097;51.738;19.472;2022-12-20T09:40:04;25.13;;;13.27;;
18411;SDS011;27097;51.738;19.472;2022-12-20T09:42:33;33.03;;;17.58;;
18411;SDS011;27097;51.738;19.472;2022-12-20T09:45:01;32.40;;;16.83;;
18411;SDS011;27097;51.738;19.472;2022-12-20T09:47:33;34.45;;;19.38;;
18411;SDS011;27097;51.738;19.472;2022-12-20T09:50:02;38.70;;;20.10;;
18411;SDS011;27097;51.738;19.472;2022-12-20T09:52:39;31.02;;;16.48;;
18411;SDS011;27097;51.738;19.472;2022-12-20T09:55:18;31.80;;;15.57;;
18411;SDS011;27097;51.738;19.472;2022-12-20T09:57:57;28.40;;;15.45;;
18411;SDS011;27097;51.738;19.472;2022-12-20T10:00:35;33.08;;;15.43;;
18411;SDS011;27097;51.738;19.472;2022-12-20T10:03:10;33.85;;;15.25;;
18411;SDS011;27097;51.738;19.472;2022-12-20T10:05:44;28.33;;;14.70;;
18411;SDS011;27097;51.738;19.472;2022-12-20T10:08:21;27.52;;;15.45;;
18411;SDS011;27097;51.738;19.472;2022-12-20T10:10:54;28.65;;;15.00;;
18411;SDS011;27097;51.738;19.472;2022-12-20T10:13:34;29.08;;;15.02;;
18411;SDS011;27097;51.738;19.472;2022-12-20T10:16:16;26.85;;;14.80;;
18411;SDS011;27097;51.738;19.472;2022-12-20T10:19:01;28.20;;;14.82;;
18411;SDS011;27097;51.738;19.472;2022-12-20T10:21:39;26.02;;;14.48;;
18411;SDS011;27097;51.738;19.472;2022-12-20T10:24:14;29.33;;;14.98;;
18411;SDS011;27097;51.738;19.472;2022-12-20T10:26:43;25.10;;;15.15;;
18411;SDS011;27097;51.738;19.472;2022-12-20T10:29:14;26.33;;;13.45;;
18411;SDS011;27097;51.738;19.472;2022-12-20T10:31:41;26.25;;;13.82;;
18411;SDS011;27097;51.738;19.472;2022-12-20T10:34:09;25.02;;;14.63;;
18411;SDS011;27097;51.738;19.472;2022-12-20T10:36:36;23.77;;;13.75;;
18411;SDS011;27097;51.738;19.472;2022-12-20T10:39:04;23.33;;;13.45;;
18411;SDS011;27097;51.738;19.472;2022-12-20T10:41:32;25.95;;;14.38;;
18411;SDS011;27097;51.738;19.472;2022-12-20T10:44:15;22.10;;;13.40;;
18411;SDS011;27097;51.738;19.472;2022-12-20T10:46:49;25.92;;;13.95;;
18411;SDS011;27097;51.738;19.472;2022-12-20T10:49:25;30.17;;;15.00;;
18411;SDS011;27097;51.738;19.472;2022-12-20T10:51:56;24.02;;;12.95;;
18411;SDS011;27097;51.738;19.472;2022-12-20T10:54:27;23.95;;;13.27;;
18411;SDS011;27097;51.738;19.472;2022-12-20T10:56:58;24.70;;;13.43;;
18411;SDS011;27097;51.738;19.472;2022-12-20T10:59:28;24.60;;;14.35;;
18411;SDS011;27097;51.738;19.472;2022-12-20T11:01:58;26.30;;;13.93;;
18411;SDS011;27097;51.738;19.472;2022-12-20T11:04:27;24.70;;;13.40;;
18411;SDS011;27097;51.738;19.472;2022-12-20T11:06:55;24.60;;;13.40;;
18411;SDS011;27097;51.738;19.472;2022-12-20T11:09:24;24.52;;;13.48;;
18411;SDS011;27097;51.738;19.472;2022-12-20T11:11:58;23.23;;;14.05;;
18411;SDS011;27097;51.738;19.472;2022-12-20T11:14:26;24.63;;;13.75;;
18411;SDS011;27097;51.738;19.472;2022-12-20T11:16:54;25.77;;;13.55;;
18411;SDS011;27097;51.738;19.472;2022-12-20T11:19:32;27.05;;;14.27;;
18411;SDS011;27097;51.738;19.472;2022-12-20T11:22:12;24.88;;;14.10;;
18411;SDS011;27097;51.738;19.472;2022-12-20T11:24:51;27.85;;;13.60;;
18411;SDS011;27097;51.738;19.472;2022-12-20T11:27:27;23.00;;;13.43;;
18411;SDS011;27097;51.738;19.472;2022-12-20T11:30:04;25.67;;;13.43;;
18411;SDS011;27097;51.738;19.472;2022-12-20T11:35:40;27.05;;;13.50;;
18411;SDS011;27097;51.738;19.472;2022-12-20T11:38:19;25.42;;;13.10;;
18411;SDS011;27097;51.738;19.472;2022-12-20T11:41:07;24.38;;;13.13;;
18411;SDS011;27097;51.738;19.472;2022-12-20T11:43:43;30.15;;;13.38;;
18411;SDS011;27097;51.738;19.472;2022-12-20T11:46:21;21.05;;;12.63;;
18411;SDS011;27097;51.738;19.472;2022-12-20T11:49:09;26.95;;;13.88;;
18411;SDS011;27097;51.738;19.472;2022-12-20T11:51:57;24.30;;;13.52;;
18411;SDS011;27097;51.738;19.472;2022-12-20T11:54:31;26.05;;;14.15;;
18411;SDS011;27097;51.738;19.472;2022-12-20T11:57:03;32.78;;;15.63;;
18411;SDS011;27097;51.738;19.472;2022-12-20T11:59:36;27.77;;;14.65;;
18411;SDS011;27097;51.738;19.472;2022-12-20T12:02:09;27.38;;;14.50;;
18411;SDS011;27097;51.738;19.472;2022-12-20T12:04:39;27.63;;;15.43;;
18411;SDS011;27097;51.738;19.472;2022-12-20T12:07:11;27.35;;;13.82;;
18411;SDS011;27097;51.738;19.472;2022-12-20T12:09:44;26.27;;;13.32;;
18411;SDS011;27097;51.738;19.472;2022-12-20T12:12:18;27.67;;;14.45;;
18411;SDS011;27097;51.738;19.472;2022-12-20T12:14:51;26.08;;;13.13;;
18411;SDS011;27097;51.738;19.472;2022-12-20T12:17:25;29.60;;;13.85;;
18411;SDS011;27097;51.738;19.472;2022-12-20T12:20:00;28.08;;;13.20;;
18411;SDS011;27097;51.738;19.472;2022-12-20T12:22:46;27.55;;;13.00;;
18411;SDS011;27097;51.738;19.472;2022-12-20T12:25:16;25.38;;;12.88;;
18411;SDS011;27097;51.738;19.472;2022-12-20T12:27:44;26.60;;;14.00;;
18411;SDS011;27097;51.738;19.472;2022-12-20T12:30:11;23.38;;;13.60;;
18411;SDS011;27097;51.738;19.472;2022-12-20T12:32:40;25.88;;;14.23;;
18411;SDS011;27097;51.738;19.472;2022-12-20T12:35:20;26.15;;;13.40;;
18411;SDS011;27097;51.738;19.472;2022-12-20T12:38:15;25.35;;;12.93;;
18411;SDS011;27097;51.738;19.472;2022-12-20T12:41:30;24.13;;;13.57;;
18411;SDS011;27097;51.738;19.472;2022-12-20T12:44:26;25.38;;;13.00;;
18411;SDS011;27097;51.738;19.472;2022-12-20T12:47:00;24.30;;;13.55;;
18411;SDS011;27097;51.738;19.472;2022-12-20T12:49:30;24.25;;;13.75;;
18411;SDS011;27097;51.738;19.472;2022-12-20T12:51:58;22.85;;;13.45;;
18411;SDS011;27097;51.738;19.472;2022-12-20T12:54:29;26.00;;;13.38;;
18411;SDS011;27097;51.738;19.472;2022-12-20T12:57:02;24.70;;;13.23;;
18411;SDS011;27097;51.738;19.472;2022-12-20T12:59:42;25.17;;;13.65;;
18411;SDS011;27097;51.738;19.472;2022-12-20T13:02:21;24.70;;;13.65;;
18411;SDS011;27097;51.738;19.472;2022-12-20T13:04:59;28.15;;;13.40;;
18411;SDS011;27097;51.738;19.472;2022-12-20T13:07:48;23.85;;;13.88;;
18411;SDS011;27097;51.738;19.472;2022-12-20T13:13:33;25.08;;;13.60;;
18411;SDS011;27097;51.738;19.472;2022-12-20T13:16:10;24.65;;;13.73;;
18411;SDS011;27097;51.738;19.472;2022-12-20T13:19:02;25.35;;;12.48;;
18411;SDS011;27097;51.738;19.472;2022-12-20T13:21:38;23.25;;;13.07;;
18411;SDS011;27097;51.738;19.472;2022-12-20T13:27:15;24.02;;;13.57;;
18411;SDS011;27097;51.738;19.472;2022-12-20T13:29:51;25.48;;;13.98;;
18411;SDS011;27097;51.738;19.472;2022-12-20T13:35:28;24.98;;;13.25;;
18411;SDS011;27097;51.738;19.472;2022-12-20T13:41:18;24.30;;;13.88;;
18411;SDS011;27097;51.738;19.472;2022-12-20T13:43:51;24.83;;;13.80;;
18411;SDS011;27097;51.738;19.472;2022-12-20T13:46:20;26.85;;;14.38;;
18411;SDS011;27097;51.738;19.472;2022-12-20T13:48:51;25.55;;;14.48;;
18411;SDS011;27097;51.738;19.472;2022-12-20T13:51:21;28.73;;;13.77;;
18411;SDS011;27097;51.738;19.472;2022-12-20T13:53:52;25.00;;;14.45;;
18411;SDS011;27097;51.738;19.472;2022-12-20T13:56:32;26.60;;;13.65;;
18411;SDS011;27097;51.738;19.472;2022-12-20T13:59:05;32.08;;;14.30;;
18411;SDS011;27097;51.738;19.472;2022-12-20T14:01:45;26.65;;;14.73;;
18411;SDS011;27097;51.738;19.472;2022-12-20T14:04:13;26.38;;;15.00;;
18411;SDS011;27097;51.738;19.472;2022-12-20T14:06:46;28.38;;;14.25;;
18411;SDS011;27097;51.738;19.472;2022-12-20T14:09:26;26.27;;;14.45;;
18411;SDS011;27097;51.738;19.472;2022-12-20T14:12:02;29.33;;;14.50;;
18411;SDS011;27097;51.738;19.472;2022-12-20T14:14:35;29.52;;;15.70;;
18411;SDS011;27097;51.738;19.472;2022-12-20T14:17:15;31.75;;;14.88;;
18411;SDS011;27097;51.738;19.472;2022-12-20T14:19:43;26.85;;;14.48;;
18411;SDS011;27097;51.738;19.472;2022-12-20T14:22:10;32.22;;;14.63;;
18411;SDS011;27097;51.738;19.472;2022-12-20T14:24:38;27.45;;;15.32;;
18411;SDS011;27097;51.738;19.472;2022-12-20T14:27:08;29.60;;;14.95;;
18411;SDS011;27097;51.738;19.472;2022-12-20T14:29:37;30.75;;;15.35;;
18411;SDS011;27097;51.738;19.472;2022-12-20T14:32:05;35.78;;;15.63;;
18411;SDS011;27097;51.738;19.472;2022-12-20T14:34:42;26.63;;;14.82;;
18411;SDS011;27097;51.738;19.472;2022-12-20T14:37:29;28.20;;;15.15;;
18411;SDS011;27097;51.738;19.472;2022-12-20T14:39:58;27.90;;;14.98;;
18411;SDS011;27097;51.738;19.472;2022-12-20T14:42:31;27.20;;;14.20;;
18411;SDS011;27097;51.738;19.472;2022-12-20T14:45:04;26.05;;;14.20;;
18411;SDS011;27097;51.738;19.472;2022-12-20T14:47:32;25.35;;;14.48;;
18411;SDS011;27097;51.738;19.472;2022-12-20T14:50:00;30.60;;;14.57;;